Time;durP1;ratioP1;P1;durP2;ratioP2;P2;SDS_P1;SDS_P2;PMS_P1;PMS_P2;Temp;Humidity;BMP_temperature;BMP_pressure;BME280_temperature;BME280_humidity;BME280_pressure;Samples;Min_cycle;Max_cycle;Signal;HPM_P1;HPM_P2
2022/05/02 00:00:10;;;;;;;11.00;9.90;;;12.20;83.30;;;;;;4979729;28;20523;-45
2022/05/02 00:02:37;;;;;;;10.83;9.73;;;12.20;82.60;;;;;;4979774;28;20477;-45
2022/05/02 00:05:06;;;;;;;11.40;10.30;;;12.20;82.60;;;;;;4982572;28;20941;-45
2022/05/02 00:07:36;;;;;;;11.60;10.43;;;12.20;82.70;;;;;;4978419;28;20706;-45
2022/05/02 00:10:04;;;;;;;11.23;10.13;;;12.10;82.80;;;;;;4982008;28;20465;-45
2022/05/02 00:12:30;;;;;;;10.90;9.90;;;12.10;82.80;;;;;;4980848;28;20552;-45
2022/05/02 00:14:57;;;;;;;13.43;11.27;;;12.00;82.90;;;;;;4981237;28;20473;-45
2022/05/02 00:17:56;;;;;;;12.53;11.00;;;12.00;83.00;;;;;;4982637;28;20486;-45
2022/05/02 00:20:11;;;;;;;13.53;10.70;;;12.00;82.60;;;;;;4982834;28;20873;-45
2022/05/02 00:22:40;;;;;;;11.77;10.57;;;11.90;82.70;;;;;;4983534;28;20463;-45
2022/05/02 00:25:07;;;;;;;11.90;10.67;;;11.80;83.00;;;;;;4981709;28;20488;-45
2022/05/02 00:27:34;;;;;;;12.87;10.87;;;11.80;83.10;;;;;;4977457;28;20551;-45
2022/05/02 00:30:01;;;;;;;11.73;10.50;;;11.80;83.20;;;;;;4978022;28;20464;-45
2022/05/02 00:32:27;;;;;;;11.77;10.67;;;11.70;83.10;;;;;;4983331;28;20491;-45
2022/05/02 00:34:54;;;;;;;12.10;10.90;;;11.70;83.30;;;;;;4984734;28;20479;-45
2022/05/02 00:37:21;;;;;;;12.37;11.27;;;11.70;83.30;;;;;;4983033;28;20468;-44
2022/05/02 00:39:48;;;;;;;12.23;10.93;;;11.70;83.50;;;;;;4981505;28;20487;-45
2022/05/02 00:42:14;;;;;;;11.43;10.33;;;11.70;83.40;;;;;;4982001;28;20475;-44
2022/05/02 00:44:43;;;;;;;12.53;11.30;;;11.70;83.30;;;;;;4978700;28;21013;-44
2022/05/02 00:47:11;;;;;;;12.40;10.03;;;11.70;83.30;;;;;;4979623;28;20463;-45
2022/05/02 00:49:41;;;;;;;12.00;10.70;;;11.70;83.20;;;;;;4980196;28;20482;-45
2022/05/02 00:52:08;;;;;;;13.10;10.30;;;11.60;83.40;;;;;;4960213;28;20467;-45
2022/05/02 00:54:37;;;;;;;15.60;10.40;;;11.50;83.50;;;;;;4977518;28;20468;-45
2022/05/02 00:57:09;;;;;;;11.87;10.67;;;11.50;83.50;;;;;;4977274;28;20474;-46
2022/05/02 00:59:37;;;;;;;11.87;10.67;;;11.40;83.40;;;;;;4965086;28;20464;-45
2022/05/02 01:02:09;;;;;;;11.47;10.37;;;11.40;83.10;;;;;;4980960;28;20858;-45
2022/05/02 01:04:36;;;;;;;12.50;10.00;;;11.40;83.20;;;;;;4978463;28;20588;-45
2022/05/02 01:07:10;;;;;;;12.30;10.23;;;11.40;83.30;;;;;;4978775;28;20468;-45
2022/05/02 01:09:42;;;;;;;11.03;9.80;;;11.40;83.40;;;;;;4968912;28;20461;-45
2022/05/02 01:12:17;;;;;;;11.50;10.30;;;11.40;83.40;;;;;;4983777;28;20460;-45
2022/05/02 01:14:47;;;;;;;11.47;10.27;;;11.40;83.40;;;;;;4960771;28;20830;-44
2022/05/02 01:17:14;;;;;;;11.10;9.87;;;11.40;83.30;;;;;;4979310;28;20843;-44
2022/05/02 01:19:41;;;;;;;10.63;9.53;;;11.40;83.20;;;;;;4966425;28;20476;-45
2022/05/02 01:22:08;;;;;;;11.57;10.47;;;11.30;83.20;;;;;;4978789;28;20471;-45
2022/05/02 01:24:36;;;;;;;10.40;9.30;;;11.30;83.10;;;;;;4979392;28;20966;-45
2022/05/02 01:27:04;;;;;;;12.00;9.67;;;11.20;83.20;;;;;;4962888;28;20464;-45
2022/05/02 01:29:33;;;;;;;9.83;8.93;;;11.20;83.20;;;;;;4982825;28;20460;-45
2022/05/02 01:32:01;;;;;;;10.93;9.83;;;11.20;83.00;;;;;;4981563;28;20483;-45
2022/05/02 01:34:28;;;;;;;12.33;10.40;;;11.10;82.80;;;;;;4980630;28;20475;-45
2022/05/02 01:36:56;;;;;;;12.13;10.83;;;11.10;83.00;;;;;;4978713;28;20465;-45
2022/05/02 01:39:23;;;;;;;12.27;10.13;;;11.10;83.30;;;;;;4980177;28;20539;-45
2022/05/02 01:41:49;;;;;;;12.03;10.07;;;11.10;83.40;;;;;;4963636;28;20833;-45
2022/05/02 01:44:16;;;;;;;12.67;9.90;;;11.00;83.20;;;;;;4979973;28;20474;-45
2022/05/02 01:46:43;;;;;;;11.27;8.93;;;11.00;83.10;;;;;;4978486;28;20495;-45
2022/05/02 01:49:10;;;;;;;13.37;10.30;;;10.90;83.10;;;;;;4976365;28;20465;-44
2022/05/02 01:51:37;;;;;;;12.40;11.03;;;10.90;83.00;;;;;;4979755;28;20805;-45
2022/05/02 01:54:04;;;;;;;11.00;9.90;;;10.90;83.10;;;;;;4960580;28;20958;-44
2022/05/02 01:56:30;;;;;;;11.60;10.50;;;10.90;83.20;;;;;;4981311;28;20871;-44
2022/05/02 01:58:57;;;;;;;10.27;9.27;;;10.90;83.20;;;;;;4976998;28;20471;-45
2022/05/02 02:01:24;;;;;;;11.67;10.57;;;10.80;83.30;;;;;;4979329;28;20487;-45
2022/05/02 02:03:54;;;;;;;11.80;10.60;;;10.80;83.50;;;;;;4978031;28;20955;-44
2022/05/02 02:06:21;;;;;;;12.17;9.40;;;10.80;83.60;;;;;;4978082;28;20988;-46
2022/05/02 02:08:51;;;;;;;10.47;9.57;;;10.80;83.70;;;;;;4978416;28;20468;-44
2022/05/02 02:11:17;;;;;;;11.17;10.10;;;10.80;83.60;;;;;;4979879;28;20491;-44
2022/05/02 02:13:45;;;;;;;10.83;9.53;;;10.80;83.50;;;;;;4980807;28;20523;-44
2022/05/02 02:16:13;;;;;;;11.30;10.10;;;10.80;83.40;;;;;;4976274;28;20473;-44
2022/05/02 02:18:41;;;;;;;11.47;10.27;;;10.70;83.20;;;;;;4960380;28;20472;-44
2022/05/02 02:21:12;;;;;;;12.70;10.80;;;10.70;83.50;;;;;;4983698;28;20859;-44
2022/05/02 02:23:39;;;;;;;12.00;10.70;;;10.70;83.60;;;;;;4983562;28;20477;-44
2022/05/02 02:26:07;;;;;;;11.13;9.27;;;10.70;83.60;;;;;;4963229;28;20903;-44
2022/05/02 02:28:34;;;;;;;12.33;8.90;;;10.60;83.70;;;;;;4986046;28;20469;-44
2022/05/02 02:31:01;;;;;;;13.67;11.00;;;10.70;83.70;;;;;;4983060;28;20974;-44
2022/05/02 02:33:28;;;;;;;11.33;10.20;;;10.60;83.60;;;;;;4979778;28;20503;-44
2022/05/02 02:35:55;;;;;;;11.00;9.70;;;10.60;83.70;;;;;;4983422;28;20826;-44
2022/05/02 02:38:22;;;;;;;9.80;8.80;;;10.60;83.70;;;;;;4983492;28;20473;-44
2022/05/02 02:40:48;;;;;;;16.17;9.67;;;10.60;83.50;;;;;;4982412;28;20469;-45
2022/05/02 02:43:15;;;;;;;12.70;10.43;;;10.50;83.60;;;;;;4982773;28;20473;-45
2022/05/02 02:45:42;;;;;;;12.17;10.00;;;10.50;83.60;;;;;;4981990;28;20489;-46
2022/05/02 02:48:09;;;;;;;10.20;9.20;;;10.50;83.70;;;;;;4987642;28;20453;-46
2022/05/02 02:50:35;;;;;;;11.10;10.00;;;10.40;83.60;;;;;;4983258;28;20525;-46
2022/05/02 02:53:02;;;;;;;11.47;9.87;;;10.40;83.70;;;;;;4967916;28;20444;-46
2022/05/02 02:55:30;;;;;;;11.40;9.10;;;10.40;83.70;;;;;;4981743;28;20511;-46
2022/05/02 02:57:57;;;;;;;9.90;8.90;;;10.40;83.60;;;;;;4980831;28;20465;-44
2022/05/02 03:00:24;;;;;;;10.77;9.50;;;10.40;83.70;;;;;;4980400;28;20464;-44
2022/05/02 03:02:52;;;;;;;14.00;10.47;;;10.30;83.80;;;;;;4980738;28;20486;-44
2022/05/02 03:08:05;;;;;;;10.03;9.10;;;10.30;83.70;;;;;;4980366;28;20468;-44
2022/05/02 03:10:31;;;;;;;9.67;8.60;;;10.30;83.80;;;;;;4980758;28;20694;-44
2022/05/02 03:12:58;;;;;;;11.83;10.47;;;10.20;83.80;;;;;;4980755;28;20456;-44
2022/05/02 03:15:25;;;;;;;10.83;9.57;;;10.30;83.80;;;;;;4983077;28;20557;-44
2022/05/02 03:17:51;;;;;;;10.10;9.10;;;10.20;83.80;;;;;;4979682;28;20475;-44
2022/05/02 03:20:18;;;;;;;14.07;10.40;;;10.20;83.80;;;;;;4979965;28;20465;-45
2022/05/02 03:22:45;;;;;;;12.63;11.33;;;10.20;83.60;;;;;;4981554;28;20477;-44
2022/05/02 03:25:12;;;;;;;14.60;10.63;;;10.20;83.70;;;;;;4981951;28;20463;-44
2022/05/02 03:27:39;;;;;;;11.97;10.67;;;10.20;83.90;;;;;;4978709;28;20481;-44
2022/05/02 03:30:06;;;;;;;11.20;10.10;;;10.20;83.90;;;;;;4977812;28;20781;-44
2022/05/02 03:32:33;;;;;;;11.13;10.00;;;10.20;83.80;;;;;;4961226;28;21004;-44
2022/05/02 03:35:00;;;;;;;11.83;9.93;;;10.10;83.80;;;;;;4965305;28;20456;-44
2022/05/02 03:37:26;;;;;;;11.00;9.90;;;10.10;83.90;;;;;;4986462;28;20542;-44
2022/05/02 03:39:53;;;;;;;9.93;8.97;;;10.10;83.90;;;;;;4984044;28;20470;-44
2022/05/02 03:42:20;;;;;;;11.97;9.90;;;10.00;83.80;;;;;;4986939;28;21009;-45
2022/05/02 03:44:47;;;;;;;13.47;10.00;;;10.00;83.80;;;;;;4982227;28;20464;-44
2022/05/02 03:47:14;;;;;;;9.73;8.70;;;10.00;83.80;;;;;;4967518;28;20484;-44
2022/05/02 03:49:41;;;;;;;12.17;9.30;;;10.00;83.70;;;;;;4977171;28;20552;-44
2022/05/02 03:52:08;;;;;;;11.90;9.73;;;9.90;83.70;;;;;;4979623;28;20560;-44
2022/05/02 03:54:34;;;;;;;10.60;9.60;;;9.90;83.80;;;;;;4979446;28;20546;-44
2022/05/02 03:57:02;;;;;;;11.50;9.70;;;9.90;83.80;;;;;;4982765;28;21015;-44
2022/05/02 03:59:29;;;;;;;14.30;9.93;;;9.90;83.90;;;;;;4982243;28;20476;-44
2022/05/02 04:01:55;;;;;;;11.50;10.37;;;9.80;84.00;;;;;;4964235;28;21042;-44
2022/05/02 04:04:22;;;;;;;10.73;9.17;;;9.80;84.00;;;;;;4973923;28;20820;-44
2022/05/02 04:06:49;;;;;;;12.60;10.70;;;9.80;83.90;;;;;;4983924;28;20502;-44
2022/05/02 04:09:16;;;;;;;10.93;9.87;;;9.90;84.20;;;;;;4963235;28;20558;-44
2022/05/02 04:11:42;;;;;;;13.57;10.03;;;9.90;84.10;;;;;;4983224;28;20476;-44
2022/05/02 04:14:09;;;;;;;12.67;10.70;;;9.90;84.10;;;;;;4978752;28;20539;-44
2022/05/02 04:16:36;;;;;;;11.60;9.90;;;9.80;84.20;;;;;;4960861;28;20460;-45
2022/05/02 04:19:03;;;;;;;15.33;10.63;;;9.80;84.20;;;;;;4977613;28;20464;-44
2022/05/02 04:21:30;;;;;;;11.40;10.20;;;9.80;84.40;;;;;;4979046;28;20487;-44
2022/05/02 04:23:59;;;;;;;12.57;9.67;;;9.80;84.40;;;;;;4978183;28;20464;-45
2022/05/02 04:26:25;;;;;;;11.80;10.27;;;9.90;84.40;;;;;;4978184;28;20950;-44
2022/05/02 04:28:52;;;;;;;11.77;10.47;;;9.90;84.40;;;;;;4978849;28;20464;-44
2022/05/02 04:31:19;;;;;;;12.27;11.03;;;9.80;84.50;;;;;;4962837;28;20488;-44
2022/05/02 04:33:46;;;;;;;13.70;11.33;;;9.90;84.60;;;;;;4982266;28;20518;-44
2022/05/02 04:36:13;;;;;;;11.00;9.90;;;9.80;84.60;;;;;;4963875;28;20475;-44
2022/05/02 04:38:40;;;;;;;11.07;10.07;;;9.80;84.70;;;;;;4979095;28;20981;-44
2022/05/02 04:41:06;;;;;;;13.17;10.37;;;9.80;84.70;;;;;;4962946;28;21107;-44
2022/05/02 04:43:33;;;;;;;12.27;10.40;;;9.80;84.80;;;;;;4981629;28;20469;-44
2022/05/02 04:46:00;;;;;;;12.80;11.03;;;9.80;84.90;;;;;;4977818;28;20500;-45
2022/05/02 04:48:27;;;;;;;12.80;11.03;;;9.80;84.80;;;;;;4977744;28;21046;-44
2022/05/02 04:50:53;;;;;;;13.90;11.30;;;9.80;84.80;;;;;;4973682;28;20476;-44
2022/05/02 04:53:20;;;;;;;11.03;9.93;;;9.90;85.00;;;;;;4979232;28;20463;-44
2022/05/02 04:55:48;;;;;;;13.43;10.50;;;9.90;84.90;;;;;;4979764;28;20496;-44
2022/05/02 04:58:15;;;;;;;11.13;10.13;;;9.90;84.90;;;;;;4960067;28;20465;-44
2022/05/02 05:00:43;;;;;;;16.00;10.90;;;9.90;85.00;;;;;;4979685;28;20471;-44
2022/05/02 05:03:10;;;;;;;11.50;10.30;;;9.90;85.00;;;;;;4977740;28;20472;-44
2022/05/02 05:05:37;;;;;;;12.27;11.07;;;9.90;85.10;;;;;;4978043;28;21005;-44
2022/05/02 05:08:04;;;;;;;13.50;10.17;;;10.00;85.20;;;;;;4978781;28;20496;-44
2022/05/02 05:10:35;;;;;;;11.17;10.00;;;10.00;85.20;;;;;;4979423;28;20467;-45
2022/05/02 05:13:10;;;;;;;12.53;11.23;;;10.00;85.20;;;;;;4977422;28;20532;-45
2022/05/02 05:16:20;;;;;;;12.70;10.27;;;10.00;85.40;;;;;;4968225;28;20515;-44
2022/05/02 05:19:02;;;;;;;11.67;9.87;;;10.10;85.40;;;;;;4961826;28;20468;-44
2022/05/02 05:21:36;;;;;;;12.13;10.60;;;10.10;85.50;;;;;;4977898;28;20448;-44
2022/05/02 05:24:09;;;;;;;15.50;11.60;;;10.10;85.60;;;;;;4981494;28;20466;-44
2022/05/02 05:26:51;;;;;;;12.40;10.43;;;10.20;85.60;;;;;;4980036;28;20489;-44
2022/05/02 05:29:32;;;;;;;10.50;9.40;;;10.20;85.60;;;;;;4981681;28;20530;-44
2022/05/02 05:32:13;;;;;;;11.50;10.23;;;10.20;85.60;;;;;;4979080;28;20469;-44
2022/05/02 05:34:59;;;;;;;12.10;10.80;;;10.30;85.60;;;;;;4956629;28;20494;-44
2022/05/02 05:37:38;;;;;;;13.40;10.60;;;10.30;85.70;;;;;;4976405;28;20464;-44
2022/05/02 05:40:17;;;;;;;11.07;9.27;;;10.30;85.80;;;;;;4977035;28;20468;-44
2022/05/02 05:42:50;;;;;;;15.17;11.47;;;10.40;86.00;;;;;;4981046;28;20452;-44
2022/05/02 05:45:45;;;;;;;12.20;11.00;;;10.50;86.00;;;;;;4979731;28;20462;-44
2022/05/02 05:48:44;;;;;;;14.37;12.87;;;10.50;86.10;;;;;;4981763;28;20977;-44
2022/05/02 05:51:33;;;;;;;19.30;14.63;;;10.70;86.10;;;;;;4956453;28;20922;-44
2022/05/02 05:54:36;;;;;;;16.80;14.30;;;10.70;86.00;;;;;;4977004;28;20494;-44
2022/05/02 05:57:11;;;;;;;17.53;13.77;;;10.80;86.30;;;;;;4981690;28;20846;-44
2022/05/02 05:59:40;;;;;;;13.73;11.90;;;10.90;86.30;;;;;;4981205;28;20445;-44
2022/05/02 06:02:19;;;;;;;15.07;13.47;;;11.00;86.00;;;;;;4984495;28;20841;-44
2022/05/02 06:04:50;;;;;;;15.07;13.47;;;11.00;86.10;;;;;;4982568;28;21020;-44
2022/05/02 06:07:20;;;;;;;16.67;13.10;;;11.10;86.10;;;;;;4980511;28;20899;-44
2022/05/02 06:09:52;;;;;;;14.90;12.97;;;11.10;86.20;;;;;;4985512;28;20464;-44
2022/05/02 06:12:21;;;;;;;15.10;13.50;;;11.30;86.20;;;;;;4981640;28;20551;-44
2022/05/02 06:20:34;;;;;;;12.33;11.03;;;11.50;85.70;;;;;;4981371;28;20488;-44
2022/05/02 06:23:02;;;;;;;14.20;10.80;;;11.60;85.40;;;;;;4982242;28;20560;-44
2022/05/02 06:25:32;;;;;;;12.50;11.30;;;11.80;84.70;;;;;;4980477;28;21038;-44
2022/05/02 06:28:03;;;;;;;13.10;11.60;;;11.90;84.50;;;;;;4981973;28;20516;-44
2022/05/02 06:30:31;;;;;;;13.47;12.17;;;11.90;84.30;;;;;;4963499;28;20868;-44
2022/05/02 06:33:04;;;;;;;13.70;12.03;;;12.00;84.40;;;;;;4980071;28;21274;-44
2022/05/02 06:35:41;;;;;;;17.50;13.37;;;12.00;84.40;;;;;;4968390;28;20451;-44
2022/05/02 06:38:29;;;;;;;14.47;12.90;;;12.20;83.80;;;;;;4984035;28;20470;-44
2022/05/02 06:41:06;;;;;;;14.33;12.80;;;12.30;83.70;;;;;;4986010;28;20474;-44
2022/05/02 06:43:55;;;;;;;15.17;13.60;;;12.40;83.50;;;;;;4982250;28;20677;-44
2022/05/02 06:46:37;;;;;;;14.10;12.60;;;12.60;83.20;;;;;;4981662;28;20496;-44
2022/05/02 06:49:11;;;;;;;15.90;12.73;;;12.70;82.40;;;;;;4978507;28;20540;-44
2022/05/02 06:51:40;;;;;;;13.80;12.50;;;12.90;82.50;;;;;;4981879;28;20453;-44
2022/05/02 06:54:32;;;;;;;15.10;12.27;;;13.00;81.80;;;;;;4978829;28;20500;-44
2022/05/02 06:57:10;;;;;;;17.50;12.97;;;13.20;81.70;;;;;;4984687;28;20904;-44
2022/05/02 07:00:03;;;;;;;16.00;11.33;;;13.40;81.00;;;;;;4963012;28;20571;-44
2022/05/02 07:03:06;;;;;;;13.07;11.33;;;13.50;79.40;;;;;;4974979;28;20473;-44
2022/05/02 07:06:08;;;;;;;17.43;10.53;;;13.70;79.30;;;;;;4983939;28;20506;-44
2022/05/02 07:09:07;;;;;;;11.93;10.73;;;13.90;78.80;;;;;;4947923;28;21044;-44
2022/05/02 07:11:55;;;;;;;15.67;11.73;;;14.10;78.40;;;;;;4971732;28;20476;-44
2022/05/02 07:14:42;;;;;;;11.57;9.70;;;14.30;78.30;;;;;;4981348;28;20825;-44
2022/05/02 07:17:50;;;;;;;11.23;9.80;;;14.40;77.60;;;;;;4978123;28;20468;-44
2022/05/02 07:20:28;;;;;;;14.20;10.20;;;14.60;76.70;;;;;;4963507;28;20876;-44
2022/05/02 07:23:50;;;;;;;12.43;10.00;;;14.80;75.20;;;;;;4983688;28;20527;-45
2022/05/02 07:26:18;;;;;;;11.00;9.70;;;14.90;73.50;;;;;;4940357;28;21097;-45
2022/05/02 07:28:50;;;;;;;11.23;9.63;;;15.10;72.10;;;;;;4982044;28;20853;-45
2022/05/02 07:31:24;;;;;;;12.43;9.57;;;15.20;71.90;;;;;;4986662;28;20477;-45
2022/05/02 07:33:53;;;;;;;10.60;9.50;;;15.40;72.60;;;;;;4973522;28;20449;-45
2022/05/02 07:36:24;;;;;;;9.37;8.13;;;15.60;71.80;;;;;;4968059;28;20545;-45
2022/05/02 07:39:08;;;;;;;10.30;8.60;;;15.70;70.70;;;;;;4979485;28;20464;-45
2022/05/02 07:41:35;;;;;;;11.40;8.23;;;15.80;71.00;;;;;;4979648;28;20496;-43
2022/05/02 07:44:03;;;;;;;9.63;8.40;;;15.90;69.50;;;;;;4981344;28;20480;-43
2022/05/02 07:46:45;;;;;;;10.00;7.60;;;15.90;67.90;;;;;;4980117;28;20517;-42
2022/05/02 07:49:21;;;;;;;10.27;9.13;;;16.10;68.00;;;;;;4981656;28;20487;-42
2022/05/02 07:51:51;;;;;;;8.40;7.67;;;16.30;70.00;;;;;;4979215;28;20457;-42
2022/05/02 07:54:28;;;;;;;15.17;9.57;;;16.40;69.30;;;;;;4980702;28;20574;-42
2022/05/02 07:57:00;;;;;;;9.80;8.37;;;16.50;66.90;;;;;;4963630;28;20532;-42
2022/05/02 07:59:35;;;;;;;9.27;8.17;;;16.60;66.30;;;;;;4977627;28;20533;-42
2022/05/02 08:02:03;;;;;;;9.10;8.17;;;16.70;66.50;;;;;;4979386;28;20556;-47
2022/05/02 08:04:30;;;;;;;12.33;8.60;;;16.90;66.40;;;;;;4978356;28;20476;-47
2022/05/02 08:07:09;;;;;;;11.07;9.93;;;17.10;66.40;;;;;;4979321;28;20495;-47
2022/05/02 08:09:55;;;;;;;10.60;8.60;;;17.30;66.70;;;;;;4981109;28;20470;-47
2022/05/02 08:12:22;;;;;;;11.63;9.00;;;17.50;65.30;;;;;;4979421;28;21193;-47
2022/05/02 08:15:12;;;;;;;11.53;9.03;;;17.60;64.50;;;;;;4977735;28;20472;-47
2022/05/02 08:17:54;;;;;;;9.70;8.80;;;17.50;63.50;;;;;;4978627;28;20834;-47
2022/05/02 08:20:34;;;;;;;11.63;8.30;;;17.30;62.10;;;;;;4975293;28;20470;-47
2022/05/02 08:29:12;;;;;;;13.90;9.33;;;16.90;64.10;;;;;;4981791;28;20970;-47
2022/05/02 08:31:55;;;;;;;11.13;9.67;;;16.90;64.70;;;;;;4983717;28;20975;-47
2022/05/02 08:34:36;;;;;;;11.97;9.63;;;16.80;63.70;;;;;;4981599;28;20572;-46
2022/05/02 08:37:26;;;;;;;12.93;8.60;;;16.70;63.80;;;;;;4983063;28;20452;-47
2022/05/02 08:39:55;;;;;;;10.50;8.40;;;16.80;64.30;;;;;;4968016;28;20917;-47
2022/05/02 08:42:41;;;;;;;10.60;9.03;;;16.80;64.30;;;;;;4983811;28;20446;-47
2022/05/02 08:45:11;;;;;;;8.80;7.50;;;16.90;62.50;;;;;;4981993;28;20471;-47
2022/05/02 08:47:59;;;;;;;8.90;7.60;;;16.90;62.20;;;;;;4980109;28;21055;-47
2022/05/02 08:50:42;;;;;;;10.30;8.13;;;17.00;61.20;;;;;;4982291;28;20841;-47
2022/05/02 08:53:29;;;;;;;10.90;7.20;;;17.20;60.70;;;;;;4982969;28;20600;-47
2022/05/02 08:56:14;;;;;;;9.30;8.40;;;17.40;61.20;;;;;;4961311;28;20469;-47
2022/05/02 08:59:12;;;;;;;9.20;7.90;;;17.50;61.40;;;;;;4981819;28;20548;-47
2022/05/02 09:01:48;;;;;;;10.50;7.87;;;17.80;61.20;;;;;;4980835;28;20516;-47
2022/05/02 09:04:18;;;;;;;8.57;7.40;;;17.90;61.60;;;;;;4980667;28;20473;-47
2022/05/02 09:07:10;;;;;;;9.77;8.87;;;17.90;60.90;;;;;;4979987;28;20493;-47
2022/05/02 09:09:59;;;;;;;9.23;7.37;;;17.90;62.50;;;;;;4984121;28;20439;-47
2022/05/02 09:12:57;;;;;;;11.67;9.30;;;17.80;60.80;;;;;;4982709;28;20838;-47
2022/05/02 09:15:36;;;;;;;10.07;7.20;;;17.70;59.90;;;;;;4977749;28;20508;-43
2022/05/02 09:18:21;;;;;;;10.27;8.00;;;17.70;59.70;;;;;;4960442;28;20469;-43
2022/05/02 09:21:11;;;;;;;9.23;7.67;;;17.80;61.00;;;;;;4977146;28;20479;-43
2022/05/02 09:23:59;;;;;;;12.23;8.33;;;18.10;61.40;;;;;;4976821;28;20470;-43
2022/05/02 09:26:57;;;;;;;9.53;7.50;;;18.40;59.50;;;;;;4978352;28;20703;-42
2022/05/02 09:29:58;;;;;;;10.53;7.70;;;18.70;60.20;;;;;;4978780;28;20884;-42
2022/05/02 09:32:31;;;;;;;7.27;6.57;;;19.20;59.50;;;;;;4980869;28;20858;-43
2022/05/02 09:35:04;;;;;;;13.13;7.17;;;19.60;57.60;;;;;;4980967;28;20466;-43
2022/05/02 09:37:56;;;;;;;9.07;7.67;;;19.90;56.40;;;;;;4982775;28;20473;-42
2022/05/02 09:40:35;;;;;;;10.40;6.70;;;20.30;53.60;;;;;;4981603;28;20478;-42
2022/05/02 09:49:51;;;;;;;11.00;7.87;;;21.30;51.70;;;;;;4981659;28;20544;-42
2022/05/02 09:52:49;;;;;;;8.60;6.70;;;21.20;50.10;;;;;;4978135;28;20464;-42
2022/05/02 09:59:05;;;;;;;7.37;6.63;;;21.30;51.30;;;;;;4981665;28;20767;-42
2022/05/02 10:01:33;;;;;;;8.17;7.17;;;21.60;52.00;;;;;;4978202;28;20981;-43
2022/05/02 10:04:19;;;;;;;10.43;7.60;;;21.70;51.30;;;;;;4962905;28;21141;-43
2022/05/02 10:06:51;;;;;;;7.27;6.63;;;21.70;50.70;;;;;;4967031;28;20476;-43
2022/05/02 10:09:50;;;;;;;9.40;7.60;;;21.70;51.00;;;;;;4978572;28;21014;-43
2022/05/02 10:12:36;;;;;;;8.37;7.57;;;21.80;50.50;;;;;;4964266;28;20487;-43
2022/05/02 10:15:30;;;;;;;7.60;6.80;;;21.90;50.60;;;;;;4983238;28;20463;-43
2022/05/02 10:18:04;;;;;;;8.20;7.40;;;22.00;49.30;;;;;;4977633;28;20560;-44
2022/05/02 10:20:54;;;;;;;7.77;7.07;;;22.00;49.40;;;;;;4980228;28;20471;-43
2022/05/02 10:23:46;;;;;;;8.97;8.07;;;22.00;50.40;;;;;;4979886;28;20848;-43
2022/05/02 10:26:18;;;;;;;9.73;8.17;;;21.90;49.20;;;;;;4980319;28;20466;-43
2022/05/02 10:29:06;;;;;;;10.80;7.23;;;21.70;49.50;;;;;;4980000;28;20579;-43
2022/05/02 10:31:39;;;;;;;8.50;7.57;;;21.70;50.50;;;;;;4982653;28;21210;-43
2022/05/02 10:34:09;;;;;;;11.90;7.77;;;21.60;49.60;;;;;;4983573;28;20488;-43
2022/05/02 10:36:41;;;;;;;9.97;7.67;;;21.60;49.00;;;;;;4980156;28;20466;-43
2022/05/02 10:39:40;;;;;;;7.70;7.00;;;21.60;49.10;;;;;;4979448;28;20466;-42
2022/05/02 10:42:10;;;;;;;9.43;8.30;;;21.80;49.70;;;;;;4982009;28;20454;-43
2022/05/02 10:44:50;;;;;;;8.43;6.70;;;21.90;48.90;;;;;;4960172;28;20457;-42
2022/05/02 10:47:20;;;;;;;7.57;6.80;;;21.90;47.80;;;;;;4980514;28;20488;-42
2022/05/02 10:50:05;;;;;;;7.67;6.60;;;22.10;48.60;;;;;;4980327;28;20461;-42
2022/05/02 10:52:46;;;;;;;8.63;7.73;;;22.20;48.30;;;;;;4978697;28;20457;-42
2022/05/02 10:55:33;;;;;;;9.07;7.70;;;22.30;48.20;;;;;;4979028;28;21042;-43
2022/05/02 10:58:04;;;;;;;9.60;7.93;;;22.30;47.70;;;;;;4979015;28;20545;-42
2022/05/02 11:00:31;;;;;;;12.20;7.77;;;22.40;49.70;;;;;;4982841;28;20467;-42
2022/05/02 11:03:07;;;;;;;8.60;7.70;;;22.30;50.10;;;;;;4962189;28;20880;-42
2022/05/02 11:05:38;;;;;;;10.80;7.43;;;22.20;49.20;;;;;;4978361;28;20476;-42
2022/05/02 11:08:11;;;;;;;13.60;9.50;;;22.20;49.20;;;;;;4958700;28;20488;-42
2022/05/02 11:11:05;;;;;;;9.40;8.37;;;22.00;48.70;;;;;;4981885;28;20830;-43
2022/05/02 11:13:57;;;;;;;8.90;8.00;;;21.80;49.20;;;;;;4978205;28;20461;-43
2022/05/02 11:16:33;;;;;;;11.03;8.87;;;21.60;49.20;;;;;;4979434;28;20462;-43
2022/05/02 11:22:25;;;;;;;10.37;8.77;;;21.40;49.80;;;;;;4979370;28;20553;-43
2022/05/02 11:25:01;;;;;;;9.37;7.67;;;21.30;49.90;;;;;;4968499;28;20475;-43
2022/05/02 11:27:58;;;;;;;10.87;8.47;;;21.30;50.10;;;;;;4980533;28;20865;-42
2022/05/02 11:30:28;;;;;;;10.97;8.90;;;21.30;50.20;;;;;;4982236;28;20462;-44
2022/05/02 11:33:16;;;;;;;11.23;8.67;;;21.30;50.10;;;;;;4971330;28;20454;-43
2022/05/02 11:35:54;;;;;;;8.70;7.77;;;21.20;50.30;;;;;;4978715;28;20525;-43
2022/05/02 11:38:29;;;;;;;10.87;8.70;;;21.20;49.90;;;;;;4979865;28;20969;-43
2022/05/02 11:41:09;;;;;;;11.03;8.13;;;21.20;50.00;;;;;;4976567;28;20553;-43
2022/05/02 11:43:39;;;;;;;14.10;8.00;;;21.20;50.30;;;;;;4980194;28;20511;-43
2022/05/02 11:46:24;;;;;;;11.00;7.77;;;21.20;50.50;;;;;;4977052;28;20468;-43
2022/05/02 11:49:04;;;;;;;9.13;8.23;;;21.10;50.10;;;;;;4978971;28;20520;-43
2022/05/02 11:51:48;;;;;;;8.80;7.90;;;21.00;49.10;;;;;;4974666;28;20512;-43
2022/05/02 11:54:27;;;;;;;10.40;8.70;;;20.80;49.80;;;;;;4981357;28;21071;-43
2022/05/02 11:57:18;;;;;;;10.60;8.43;;;20.80;50.40;;;;;;4976493;28;20844;-43
2022/05/02 12:00:11;;;;;;;10.60;8.63;;;20.70;50.50;;;;;;4979676;28;20970;-43
2022/05/02 12:02:38;;;;;;;10.53;8.73;;;20.70;50.90;;;;;;4976345;28;20802;-43
2022/05/02 12:05:16;;;;;;;10.40;9.10;;;20.80;50.40;;;;;;4974635;28;20475;-42
2022/05/02 12:07:53;;;;;;;11.40;8.97;;;20.70;49.20;;;;;;4960052;28;21092;-42
2022/05/02 12:10:39;;;;;;;9.20;8.30;;;20.70;50.10;;;;;;4974890;28;20475;-42
2022/05/02 12:13:12;;;;;;;9.37;8.57;;;20.80;50.70;;;;;;4978799;28;20463;-42
2022/05/02 12:16:08;;;;;;;10.30;8.73;;;20.80;50.10;;;;;;4979558;28;20469;-43
2022/05/02 12:18:47;;;;;;;12.60;8.33;;;20.90;49.40;;;;;;4975551;28;20508;-42
2022/05/02 12:21:35;;;;;;;8.90;8.00;;;20.90;49.40;;;;;;4979943;28;20469;-42
2022/05/02 12:24:03;;;;;;;10.70;8.40;;;20.90;51.20;;;;;;4976046;28;20462;-42
2022/05/02 12:26:33;;;;;;;8.73;7.93;;;20.90;49.40;;;;;;4976764;28;20469;-42
2022/05/02 12:29:11;;;;;;;8.53;7.83;;;20.80;49.50;;;;;;4980580;28;20500;-42
2022/05/02 12:31:42;;;;;;;9.73;8.73;;;20.80;49.80;;;;;;4978818;28;20476;-42
2022/05/02 12:34:11;;;;;;;15.97;10.00;;;20.90;49.90;;;;;;4977748;28;21020;-43
2022/05/02 12:36:45;;;;;;;12.47;8.97;;;20.90;50.10;;;;;;4976903;28;20461;-43
2022/05/02 12:39:20;;;;;;;9.70;8.80;;;21.00;50.40;;;;;;4980636;28;20938;-43
2022/05/02 12:41:49;;;;;;;9.47;8.57;;;21.10;50.50;;;;;;4981449;28;20457;-43
2022/05/02 12:44:25;;;;;;;10.10;8.90;;;21.00;50.20;;;;;;4981985;28;20464;-43
2022/05/02 12:46:53;;;;;;;8.23;7.43;;;20.90;50.00;;;;;;4978999;28;20469;-43
2022/05/02 12:49:35;;;;;;;8.37;7.67;;;21.00;51.00;;;;;;4979677;28;20870;-43
2022/05/02 12:52:04;;;;;;;9.60;8.43;;;20.90;50.80;;;;;;4976167;28;20457;-43
2022/05/02 12:54:33;;;;;;;8.80;8.00;;;20.90;50.20;;;;;;4980238;28;20479;-43
2022/05/02 13:02:41;;;;;;;9.13;8.17;;;21.00;49.70;;;;;;4977688;28;20481;-43
2022/05/02 13:05:19;;;;;;;10.47;8.07;;;21.00;49.40;;;;;;4980617;28;21034;-43
2022/05/02 13:07:54;;;;;;;13.93;9.30;;;21.00;49.20;;;;;;4978976;28;21066;-43
2022/05/02 13:10:29;;;;;;;9.50;8.03;;;21.10;49.50;;;;;;4979987;28;21066;-43
2022/05/02 13:13:05;;;;;;;9.27;8.30;;;21.10;49.90;;;;;;4977071;28;20461;-43
2022/05/02 13:15:38;;;;;;;9.83;7.60;;;21.10;49.20;;;;;;4964660;28;20464;-43
2022/05/02 13:18:07;;;;;;;9.73;8.83;;;21.20;49.20;;;;;;4978681;28;20974;-43
2022/05/02 13:21:02;;;;;;;9.20;8.37;;;21.10;48.60;;;;;;4979100;28;20457;-43
2022/05/02 13:23:47;;;;;;;11.30;9.43;;;21.10;49.50;;;;;;4977866;28;20827;-43
2022/05/02 13:27:07;;;;;;;10.83;9.77;;;21.10;49.40;;;;;;4980050;28;20508;-43
2022/05/02 13:29:46;;;;;;;10.93;8.43;;;21.10;49.80;;;;;;4960050;28;20505;-42
2022/05/02 13:32:22;;;;;;;9.40;8.67;;;21.10;49.30;;;;;;4977923;28;20489;-43
2022/05/02 13:35:00;;;;;;;11.40;8.60;;;21.20;49.20;;;;;;4977984;28;20471;-43
2022/05/02 13:37:34;;;;;;;10.10;8.20;;;21.20;49.30;;;;;;4959709;28;20500;-43
2022/05/02 13:40:15;;;;;;;9.90;8.90;;;21.20;49.50;;;;;;4977512;28;20473;-43
2022/05/02 13:43:25;;;;;;;8.17;7.40;;;21.20;49.40;;;;;;4960226;28;20557;-43
2022/05/02 13:46:13;;;;;;;9.00;7.13;;;21.30;49.50;;;;;;4924100;28;20465;-43
2022/05/02 13:49:14;;;;;;;9.63;8.73;;;21.30;49.80;;;;;;4977358;28;20492;-45